sensor_id;sensor_type;location;lat;lon;timestamp;temperature;humidity
43987;DHT22;29650;47.378;8.300;2022-11-20T00:01:10;6.00;99.90
43987;DHT22;29650;47.378;8.300;2022-11-20T00:03:37;5.90;99.90
43987;DHT22;29650;47.378;8.300;2022-11-20T00:06:07;6.10;99.90
43987;DHT22;29650;47.378;8.300;2022-11-20T00:08:34;6.00;99.90
43987;DHT22;29650;47.378;8.300;2022-11-20T00:11:05;6.00;99.90
43987;DHT22;29650;47.378;8.300;2022-11-20T00:13:33;6.00;99.90
43987;DHT22;29650;47.378;8.300;2022-11-20T00:16:01;5.90;99.90
43987;DHT22;29650;47.378;8.300;2022-11-20T00:18:29;5.80;99.90
43987;DHT22;29650;47.378;8.300;2022-11-20T00:21:01;5.70;99.90
43987;DHT22;29650;47.378;8.300;2022-11-20T00:23:29;5.80;99.90
43987;DHT22;29650;47.378;8.300;2022-11-20T00:26:00;5.90;99.90
43987;DHT22;29650;47.378;8.300;2022-11-20T00:28:27;5.90;99.90
43987;DHT22;29650;47.378;8.300;2022-11-20T00:31:00;5.90;99.90
43987;DHT22;29650;47.378;8.300;2022-11-20T00:33:28;5.90;99.90
43987;DHT22;29650;47.378;8.300;2022-11-20T00:35:59;5.90;99.90
43987;DHT22;29650;47.378;8.300;2022-11-20T00:38:26;5.90;99.90
43987;DHT22;29650;47.378;8.300;2022-11-20T00:40:56;5.90;99.90
43987;DHT22;29650;47.378;8.300;2022-11-20T00:43:23;5.80;99.90
43987;DHT22;29650;47.378;8.300;2022-11-20T00:45:50;5.90;99.90
43987;DHT22;29650;47.378;8.300;2022-11-20T00:48:17;5.90;99.90
43987;DHT22;29650;47.378;8.300;2022-11-20T00:50:44;5.90;99.90
43987;DHT22;29650;47.378;8.300;2022-11-20T00:53:11;5.90;99.90
43987;DHT22;29650;47.378;8.300;2022-11-20T00:55:38;5.90;99.90
43987;DHT22;29650;47.378;8.300;2022-11-20T00:58:06;5.90;99.90
43987;DHT22;29650;47.378;8.300;2022-11-20T01:00:33;5.80;99.90
43987;DHT22;29650;47.378;8.300;2022-11-20T01:03:00;5.70;99.90
43987;DHT22;29650;47.378;8.300;2022-11-20T01:05:27;5.70;99.90
43987;DHT22;29650;47.378;8.300;2022-11-20T01:07:54;5.70;99.90
43987;DHT22;29650;47.378;8.300;2022-11-20T01:10:21;5.60;99.90
43987;DHT22;29650;47.378;8.300;2022-11-20T01:12:48;5.70;99.90
43987;DHT22;29650;47.378;8.300;2022-11-20T01:15:36;5.80;99.90
43987;DHT22;29650;47.378;8.300;2022-11-20T01:18:03;5.80;99.90
43987;DHT22;29650;47.378;8.300;2022-11-20T01:20:33;5.80;99.90
43987;DHT22;29650;47.378;8.300;2022-11-20T01:23:00;5.90;99.90
43987;DHT22;29650;47.378;8.300;2022-11-20T01:25:27;5.90;99.90
43987;DHT22;29650;47.378;8.300;2022-11-20T01:27:54;5.80;99.90
43987;DHT22;29650;47.378;8.300;2022-11-20T01:30:21;5.80;99.90
43987;DHT22;29650;47.378;8.300;2022-11-20T01:32:49;5.90;99.90
43987;DHT22;29650;47.378;8.300;2022-11-20T01:35:16;5.90;99.90
43987;DHT22;29650;47.378;8.300;2022-11-20T01:37:43;5.80;99.90
43987;DHT22;29650;47.378;8.300;2022-11-20T01:40:11;5.80;99.90
43987;DHT22;29650;47.378;8.300;2022-11-20T01:42:38;5.90;99.90
43987;DHT22;29650;47.378;8.300;2022-11-20T01:45:42;5.90;99.90
43987;DHT22;29650;47.378;8.300;2022-11-20T01:48:19;6.00;99.90
43987;DHT22;29650;47.378;8.300;2022-11-20T01:50:49;6.00;99.90
43987;DHT22;29650;47.378;8.300;2022-11-20T01:53:20;6.00;99.90
43987;DHT22;29650;47.378;8.300;2022-11-20T01:55:53;6.10;99.90
43987;DHT22;29650;47.378;8.300;2022-11-20T01:58:25;6.00;99.90
43987;DHT22;29650;47.378;8.300;2022-11-20T02:00:55;6.00;99.90
43987;DHT22;29650;47.378;8.300;2022-11-20T02:03:24;6.00;99.90
43987;DHT22;29650;47.378;8.300;2022-11-20T02:05:53;6.10;99.90
43987;DHT22;29650;47.378;8.300;2022-11-20T02:08:23;6.10;99.90
43987;DHT22;29650;47.378;8.300;2022-11-20T02:10:50;6.20;99.90
43987;DHT22;29650;47.378;8.300;2022-11-20T02:13:17;6.10;99.90
43987;DHT22;29650;47.378;8.300;2022-11-20T02:16:02;6.10;99.90
43987;DHT22;29650;47.378;8.300;2022-11-20T02:18:31;6.10;99.90
43987;DHT22;29650;47.378;8.300;2022-11-20T02:21:03;6.20;99.90
43987;DHT22;29650;47.378;8.300;2022-11-20T02:23:34;6.10;99.90
43987;DHT22;29650;47.378;8.300;2022-11-20T02:26:06;6.20;99.90
43987;DHT22;29650;47.378;8.300;2022-11-20T02:28:34;6.20;99.90
43987;DHT22;29650;47.378;8.300;2022-11-20T02:31:01;6.20;99.90
43987;DHT22;29650;47.378;8.300;2022-11-20T02:33:28;6.20;99.90
43987;DHT22;29650;47.378;8.300;2022-11-20T02:35:55;6.10;99.90
43987;DHT22;29650;47.378;8.300;2022-11-20T02:38:22;6.10;99.90
43987;DHT22;29650;47.378;8.300;2022-11-20T02:40:49;6.10;99.90
43987;DHT22;29650;47.378;8.300;2022-11-20T02:43:17;6.00;99.90
43987;DHT22;29650;47.378;8.300;2022-11-20T02:45:44;5.90;99.90
43987;DHT22;29650;47.378;8.300;2022-11-20T02:48:11;5.90;99.90
43987;DHT22;29650;47.378;8.300;2022-11-20T02:50:39;5.90;99.90
43987;DHT22;29650;47.378;8.300;2022-11-20T02:53:06;5.80;99.90
43987;DHT22;29650;47.378;8.300;2022-11-20T02:55:33;5.80;99.90
43987;DHT22;29650;47.378;8.300;2022-11-20T02:58:00;5.70;99.90
43987;DHT22;29650;47.378;8.300;2022-11-20T03:00:28;5.70;99.90
43987;DHT22;29650;47.378;8.300;2022-11-20T03:02:55;5.70;99.90
43987;DHT22;29650;47.378;8.300;2022-11-20T03:05:22;5.80;99.90
43987;DHT22;29650;47.378;8.300;2022-11-20T03:07:49;5.70;99.90
43987;DHT22;29650;47.378;8.300;2022-11-20T03:10:16;5.80;99.90
43987;DHT22;29650;47.378;8.300;2022-11-20T03:12:43;5.80;99.90
43987;DHT22;29650;47.378;8.300;2022-11-20T03:15:10;5.80;99.90
43987;DHT22;29650;47.378;8.300;2022-11-20T03:17:39;5.90;99.90
43987;DHT22;29650;47.378;8.300;2022-11-20T03:20:07;5.80;99.90
43987;DHT22;29650;47.378;8.300;2022-11-20T03:22:34;5.80;99.90
43987;DHT22;29650;47.378;8.300;2022-11-20T03:25:01;5.90;99.90
43987;DHT22;29650;47.378;8.300;2022-11-20T03:27:32;6.00;99.90
43987;DHT22;29650;47.378;8.300;2022-11-20T03:29:59;5.90;99.90
43987;DHT22;29650;47.378;8.300;2022-11-20T03:32:26;5.90;99.90
43987;DHT22;29650;47.378;8.300;2022-11-20T03:34:54;5.90;99.90
43987;DHT22;29650;47.378;8.300;2022-11-20T03:37:21;5.90;99.90
43987;DHT22;29650;47.378;8.300;2022-11-20T03:39:48;6.00;99.90
43987;DHT22;29650;47.378;8.300;2022-11-20T03:42:15;6.00;99.90
43987;DHT22;29650;47.378;8.300;2022-11-20T03:44:55;6.00;99.90
43987;DHT22;29650;47.378;8.300;2022-11-20T03:47:22;6.00;99.90
43987;DHT22;29650;47.378;8.300;2022-11-20T03:49:49;6.10;99.90
43987;DHT22;29650;47.378;8.300;2022-11-20T03:52:18;6.00;99.90
43987;DHT22;29650;47.378;8.300;2022-11-20T03:54:44;5.90;99.90
43987;DHT22;29650;47.378;8.300;2022-11-20T03:57:11;5.90;99.90
43987;DHT22;29650;47.378;8.300;2022-11-20T03:59:38;5.90;99.90
43987;DHT22;29650;47.378;8.300;2022-11-20T04:02:05;5.80;99.90
43987;DHT22;29650;47.378;8.300;2022-11-20T04:04:32;5.70;99.90
43987;DHT22;29650;47.378;8.300;2022-11-20T04:06:59;5.60;99.90
43987;DHT22;29650;47.378;8.300;2022-11-20T04:09:27;5.60;99.90
43987;DHT22;29650;47.378;8.300;2022-11-20T04:11:54;5.60;99.90
43987;DHT22;29650;47.378;8.300;2022-11-20T04:14:21;5.50;99.90
43987;DHT22;29650;47.378;8.300;2022-11-20T04:16:48;5.50;99.90
43987;DHT22;29650;47.378;8.300;2022-11-20T04:19:15;5.50;99.90
43987;DHT22;29650;47.378;8.300;2022-11-20T04:21:43;5.50;99.90
43987;DHT22;29650;47.378;8.300;2022-11-20T04:24:10;5.50;99.90
43987;DHT22;29650;47.378;8.300;2022-11-20T04:26:39;5.40;99.90
43987;DHT22;29650;47.378;8.300;2022-11-20T04:29:09;5.50;99.90
43987;DHT22;29650;47.378;8.300;2022-11-20T04:31:36;5.50;99.90
43987;DHT22;29650;47.378;8.300;2022-11-20T04:34:05;5.50;99.90
43987;DHT22;29650;47.378;8.300;2022-11-20T04:36:32;5.00;99.90
43987;DHT22;29650;47.378;8.300;2022-11-20T04:39:01;5.50;99.90
43987;DHT22;29650;47.378;8.300;2022-11-20T04:41:30;5.50;99.90
43987;DHT22;29650;47.378;8.300;2022-11-20T04:44:00;5.40;99.90
43987;DHT22;29650;47.378;8.300;2022-11-20T04:46:29;5.50;99.90
43987;DHT22;29650;47.378;8.300;2022-11-20T04:48:56;5.40;99.90
43987;DHT22;29650;47.378;8.300;2022-11-20T04:51:23;5.20;99.90
43987;DHT22;29650;47.378;8.300;2022-11-20T04:53:50;5.30;99.90
43987;DHT22;29650;47.378;8.300;2022-11-20T04:56:17;5.30;99.90
43987;DHT22;29650;47.378;8.300;2022-11-20T04:58:44;5.30;99.90
43987;DHT22;29650;47.378;8.300;2022-11-20T05:01:18;5.20;99.90
43987;DHT22;29650;47.378;8.300;2022-11-20T05:03:45;5.20;99.90
43987;DHT22;29650;47.378;8.300;2022-11-20T05:06:14;5.20;99.90
43987;DHT22;29650;47.378;8.300;2022-11-20T05:08:41;5.20;99.90
43987;DHT22;29650;47.378;8.300;2022-11-20T05:11:10;5.20;99.90
43987;DHT22;29650;47.378;8.300;2022-11-20T05:13:37;5.20;99.90
43987;DHT22;29650;47.378;8.300;2022-11-20T05:16:06;5.30;99.90
43987;DHT22;29650;47.378;8.300;2022-11-20T05:18:36;5.30;99.90
43987;DHT22;29650;47.378;8.300;2022-11-20T05:21:03;5.30;99.90
43987;DHT22;29650;47.378;8.300;2022-11-20T05:23:31;5.30;99.90
43987;DHT22;29650;47.378;8.300;2022-11-20T05:25:58;5.10;99.90
43987;DHT22;29650;47.378;8.300;2022-11-20T05:28:26;5.20;99.90
43987;DHT22;29650;47.378;8.300;2022-11-20T05:30:54;5.20;99.90
43987;DHT22;29650;47.378;8.300;2022-11-20T05:33:21;5.30;99.90
43987;DHT22;29650;47.378;8.300;2022-11-20T05:35:49;5.30;99.90
43987;DHT22;29650;47.378;8.300;2022-11-20T05:38:16;5.40;99.90
43987;DHT22;29650;47.378;8.300;2022-11-20T05:40:43;5.40;99.90
43987;DHT22;29650;47.378;8.300;2022-11-20T05:43:10;5.30;99.90
43987;DHT22;29650;47.378;8.300;2022-11-20T05:45:37;5.30;99.90
43987;DHT22;29650;47.378;8.300;2022-11-20T05:48:04;5.30;99.90
43987;DHT22;29650;47.378;8.300;2022-11-20T05:50:31;5.40;99.90
43987;DHT22;29650;47.378;8.300;2022-11-20T05:53:00;5.40;99.90
43987;DHT22;29650;47.378;8.300;2022-11-20T05:55:27;5.30;99.90
43987;DHT22;29650;47.378;8.300;2022-11-20T05:57:54;5.40;99.90
43987;DHT22;29650;47.378;8.300;2022-11-20T06:00:21;5.60;99.90
43987;DHT22;29650;47.378;8.300;2022-11-20T06:02:48;5.50;99.90
43987;DHT22;29650;47.378;8.300;2022-11-20T06:05:15;5.60;99.90
43987;DHT22;29650;47.378;8.300;2022-11-20T06:07:42;5.70;99.90
43987;DHT22;29650;47.378;8.300;2022-11-20T06:10:11;5.70;99.90
43987;DHT22;29650;47.378;8.300;2022-11-20T06:12:38;5.70;99.90
43987;DHT22;29650;47.378;8.300;2022-11-20T06:15:06;5.70;99.90
43987;DHT22;29650;47.378;8.300;2022-11-20T06:17:33;5.70;99.90
43987;DHT22;29650;47.378;8.300;2022-11-20T06:19:59;5.60;99.90
43987;DHT22;29650;47.378;8.300;2022-11-20T06:22:26;5.60;99.90
43987;DHT22;29650;47.378;8.300;2022-11-20T06:24:53;5.40;99.90
43987;DHT22;29650;47.378;8.300;2022-11-20T06:27:21;5.30;99.90
43987;DHT22;29650;47.378;8.300;2022-11-20T06:29:48;5.30;99.90
43987;DHT22;29650;47.378;8.300;2022-11-20T06:32:15;5.40;99.90
43987;DHT22;29650;47.378;8.300;2022-11-20T06:34:42;5.30;99.90
43987;DHT22;29650;47.378;8.300;2022-11-20T06:37:09;5.30;99.90
43987;DHT22;29650;47.378;8.300;2022-11-20T06:39:36;5.40;99.90
43987;DHT22;29650;47.378;8.300;2022-11-20T06:42:03;5.50;99.90
43987;DHT22;29650;47.378;8.300;2022-11-20T06:44:31;5.40;99.90
43987;DHT22;29650;47.378;8.300;2022-11-20T06:46:58;5.50;99.90
43987;DHT22;29650;47.378;8.300;2022-11-20T06:49:26;5.40;99.90
43987;DHT22;29650;47.378;8.300;2022-11-20T06:51:52;5.60;99.90
43987;DHT22;29650;47.378;8.300;2022-11-20T06:54:19;5.60;99.90
43987;DHT22;29650;47.378;8.300;2022-11-20T06:56:46;5.60;99.90
43987;DHT22;29650;47.378;8.300;2022-11-20T06:59:14;5.60;99.90
43987;DHT22;29650;47.378;8.300;2022-11-20T07:01:42;5.60;99.90
43987;DHT22;29650;47.378;8.300;2022-11-20T07:04:09;5.70;99.90
43987;DHT22;29650;47.378;8.300;2022-11-20T07:06:36;5.70;99.90
43987;DHT22;29650;47.378;8.300;2022-11-20T07:09:03;5.60;99.90
43987;DHT22;29650;47.378;8.300;2022-11-20T07:11:30;5.70;99.90
43987;DHT22;29650;47.378;8.300;2022-11-20T07:13:57;5.70;99.90
43987;DHT22;29650;47.378;8.300;2022-11-20T07:16:24;5.70;99.90
43987;DHT22;29650;47.378;8.300;2022-11-20T07:18:52;7.10;99.90
43987;DHT22;29650;47.378;8.300;2022-11-20T07:21:19;5.80;99.90
43987;DHT22;29650;47.378;8.300;2022-11-20T07:23:46;5.70;99.90
43987;DHT22;29650;47.378;8.300;2022-11-20T07:26:13;5.80;99.90
43987;DHT22;29650;47.378;8.300;2022-11-20T07:28:40;5.80;99.90
43987;DHT22;29650;47.378;8.300;2022-11-20T07:31:07;5.80;99.90
43987;DHT22;29650;47.378;8.300;2022-11-20T07:33:34;5.70;99.90
43987;DHT22;29650;47.378;8.300;2022-11-20T07:36:02;5.70;99.90
43987;DHT22;29650;47.378;8.300;2022-11-20T07:38:29;5.70;99.90
43987;DHT22;29650;47.378;8.300;2022-11-20T07:40:57;5.80;99.90
43987;DHT22;29650;47.378;8.300;2022-11-20T07:43:27;5.90;99.90
43987;DHT22;29650;47.378;8.300;2022-11-20T07:45:55;6.00;99.90
43987;DHT22;29650;47.378;8.300;2022-11-20T07:48:22;5.90;99.90
43987;DHT22;29650;47.378;8.300;2022-11-20T07:50:49;6.10;99.90
43987;DHT22;29650;47.378;8.300;2022-11-20T07:53:17;6.10;99.90
43987;DHT22;29650;47.378;8.300;2022-11-20T07:55:46;6.20;99.90
43987;DHT22;29650;47.378;8.300;2022-11-20T07:58:13;6.20;99.90
43987;DHT22;29650;47.378;8.300;2022-11-20T08:00:40;6.20;99.90
43987;DHT22;29650;47.378;8.300;2022-11-20T08:03:07;6.20;99.90
43987;DHT22;29650;47.378;8.300;2022-11-20T08:05:34;6.30;99.90
43987;DHT22;29650;47.378;8.300;2022-11-20T08:08:03;6.40;99.90
43987;DHT22;29650;47.378;8.300;2022-11-20T08:10:31;6.40;99.90
43987;DHT22;29650;47.378;8.300;2022-11-20T08:12:58;6.40;99.90
43987;DHT22;29650;47.378;8.300;2022-11-20T08:15:48;6.50;99.90
43987;DHT22;29650;47.378;8.300;2022-11-20T08:18:15;6.50;99.90
43987;DHT22;29650;47.378;8.300;2022-11-20T08:20:43;6.40;99.90
43987;DHT22;29650;47.378;8.300;2022-11-20T08:23:10;6.40;99.90
43987;DHT22;29650;47.378;8.300;2022-11-20T08:25:38;6.40;99.90
43987;DHT22;29650;47.378;8.300;2022-11-20T08:28:07;6.50;99.90
43987;DHT22;29650;47.378;8.300;2022-11-20T08:30:35;6.50;99.90
43987;DHT22;29650;47.378;8.300;2022-11-20T08:33:03;6.60;99.90
43987;DHT22;29650;47.378;8.300;2022-11-20T08:35:33;6.60;99.90
43987;DHT22;29650;47.378;8.300;2022-11-20T08:38:00;6.70;99.90
43987;DHT22;29650;47.378;8.300;2022-11-20T08:40:27;6.80;99.90
43987;DHT22;29650;47.378;8.300;2022-11-20T08:42:55;6.90;99.90
43987;DHT22;29650;47.378;8.300;2022-11-20T08:45:22;7.00;99.90
43987;DHT22;29650;47.378;8.300;2022-11-20T08:47:49;7.00;99.90
43987;DHT22;29650;47.378;8.300;2022-11-20T08:50:16;7.00;99.90
43987;DHT22;29650;47.378;8.300;2022-11-20T08:52:43;7.00;99.90
43987;DHT22;29650;47.378;8.300;2022-11-20T08:55:11;7.00;99.90
43987;DHT22;29650;47.378;8.300;2022-11-20T08:57:38;7.10;99.90
43987;DHT22;29650;47.378;8.300;2022-11-20T09:00:08;7.20;99.90
43987;DHT22;29650;47.378;8.300;2022-11-20T09:02:35;7.20;99.90
43987;DHT22;29650;47.378;8.300;2022-11-20T09:05:02;7.30;99.90
43987;DHT22;29650;47.378;8.300;2022-11-20T09:07:29;7.30;99.90
43987;DHT22;29650;47.378;8.300;2022-11-20T09:09:56;8.80;99.90
43987;DHT22;29650;47.378;8.300;2022-11-20T09:12:24;7.70;99.90
43987;DHT22;29650;47.378;8.300;2022-11-20T09:14:51;7.50;99.90
43987;DHT22;29650;47.378;8.300;2022-11-20T09:17:19;7.50;99.90
43987;DHT22;29650;47.378;8.300;2022-11-20T09:19:46;7.60;99.90
43987;DHT22;29650;47.378;8.300;2022-11-20T09:22:14;7.50;99.90
43987;DHT22;29650;47.378;8.300;2022-11-20T09:24:41;7.40;99.90
43987;DHT22;29650;47.378;8.300;2022-11-20T09:27:08;7.50;99.90
43987;DHT22;29650;47.378;8.300;2022-11-20T09:29:35;7.50;99.90
43987;DHT22;29650;47.378;8.300;2022-11-20T09:32:02;7.70;99.90
43987;DHT22;29650;47.378;8.300;2022-11-20T09:34:30;7.70;99.90
43987;DHT22;29650;47.378;8.300;2022-11-20T09:36:57;7.70;99.90
43987;DHT22;29650;47.378;8.300;2022-11-20T09:39:24;7.80;99.90
43987;DHT22;29650;47.378;8.300;2022-11-20T09:42:09;7.70;99.90
43987;DHT22;29650;47.378;8.300;2022-11-20T09:44:59;8.00;99.90
43987;DHT22;29650;47.378;8.300;2022-11-20T09:47:36;8.10;99.90
43987;DHT22;29650;47.378;8.300;2022-11-20T09:50:20;7.70;99.90
43987;DHT22;29650;47.378;8.300;2022-11-20T09:52:59;7.70;99.90
43987;DHT22;29650;47.378;8.300;2022-11-20T09:55:30;7.80;99.90
43987;DHT22;29650;47.378;8.300;2022-11-20T09:57:58;7.80;99.90
43987;DHT22;29650;47.378;8.300;2022-11-20T10:00:26;7.90;99.90
43987;DHT22;29650;47.378;8.300;2022-11-20T10:02:58;7.90;99.90
43987;DHT22;29650;47.378;8.300;2022-11-20T10:05:31;7.80;99.90
43987;DHT22;29650;47.378;8.300;2022-11-20T10:08:09;8.00;99.90
43987;DHT22;29650;47.378;8.300;2022-11-20T10:10:42;8.30;99.90
43987;DHT22;29650;47.378;8.300;2022-11-20T10:13:22;8.20;99.90
43987;DHT22;29650;47.378;8.300;2022-11-20T10:16:00;8.50;99.90
43987;DHT22;29650;47.378;8.300;2022-11-20T10:18:40;8.30;99.90
43987;DHT22;29650;47.378;8.300;2022-11-20T10:21:16;8.40;99.90
43987;DHT22;29650;47.378;8.300;2022-11-20T10:24:00;8.40;99.90
43987;DHT22;29650;47.378;8.300;2022-11-20T10:26:41;8.40;99.90
43987;DHT22;29650;47.378;8.300;2022-11-20T10:29:12;8.50;99.90
43987;DHT22;29650;47.378;8.300;2022-11-20T10:31:41;8.60;99.90
43987;DHT22;29650;47.378;8.300;2022-11-20T10:34:17;8.60;99.90
43987;DHT22;29650;47.378;8.300;2022-11-20T10:36:52;8.50;99.90
43987;DHT22;29650;47.378;8.300;2022-11-20T10:39:28;8.90;99.90
43987;DHT22;29650;47.378;8.300;2022-11-20T10:41:56;8.90;99.80
43987;DHT22;29650;47.378;8.300;2022-11-20T10:44:27;8.90;99.20
43987;DHT22;29650;47.378;8.300;2022-11-20T10:47:13;8.90;99.50
43987;DHT22;29650;47.378;8.300;2022-11-20T10:49:41;9.10;98.80
43987;DHT22;29650;47.378;8.300;2022-11-20T10:52:15;9.20;98.80
43987;DHT22;29650;47.378;8.300;2022-11-20T10:54:49;8.70;97.40
43987;DHT22;29650;47.378;8.300;2022-11-20T10:57:25;8.80;98.00
43987;DHT22;29650;47.378;8.300;2022-11-20T11:00:06;8.70;98.00
43987;DHT22;29650;47.378;8.300;2022-11-20T11:02:40;8.90;98.40
43987;DHT22;29650;47.378;8.300;2022-11-20T11:05:17;9.00;98.10
43987;DHT22;29650;47.378;8.300;2022-11-20T11:07:52;9.10;97.70
43987;DHT22;29650;47.378;8.300;2022-11-20T11:10:33;9.20;98.00
43987;DHT22;29650;47.378;8.300;2022-11-20T11:13:02;8.70;95.70
43987;DHT22;29650;47.378;8.300;2022-11-20T11:15:37;8.90;96.90
43987;DHT22;29650;47.378;8.300;2022-11-20T11:18:05;9.10;97.50
43987;DHT22;29650;47.378;8.300;2022-11-20T11:20:32;9.10;96.60
43987;DHT22;29650;47.378;8.300;2022-11-20T11:23:00;9.30;96.70
43987;DHT22;29650;47.378;8.300;2022-11-20T11:25:29;9.20;95.60
43987;DHT22;29650;47.378;8.300;2022-11-20T11:28:00;9.20;96.40
43987;DHT22;29650;47.378;8.300;2022-11-20T11:30:29;9.20;95.80
43987;DHT22;29650;47.378;8.300;2022-11-20T11:33:05;9.30;96.30
43987;DHT22;29650;47.378;8.300;2022-11-20T11:35:33;9.00;94.30
43987;DHT22;29650;47.378;8.300;2022-11-20T11:38:06;9.10;95.30
43987;DHT22;29650;47.378;8.300;2022-11-20T11:40:35;9.20;96.10
43987;DHT22;29650;47.378;8.300;2022-11-20T11:43:07;9.40;96.10
43987;DHT22;29650;47.378;8.300;2022-11-20T11:46:04;9.40;95.00
43987;DHT22;29650;47.378;8.300;2022-11-20T11:48:34;9.30;94.40
43987;DHT22;29650;47.378;8.300;2022-11-20T11:51:01;9.20;94.20
43987;DHT22;29650;47.378;8.300;2022-11-20T11:53:30;9.30;94.40
43987;DHT22;29650;47.378;8.300;2022-11-20T11:56:04;9.20;94.10
43987;DHT22;29650;47.378;8.300;2022-11-20T11:58:41;9.20;94.10
43987;DHT22;29650;47.378;8.300;2022-11-20T12:01:21;9.10;94.80
43987;DHT22;29650;47.378;8.300;2022-11-20T12:03:58;9.00;93.60
43987;DHT22;29650;47.378;8.300;2022-11-20T12:06:26;8.90;93.10
43987;DHT22;29650;47.378;8.300;2022-11-20T12:09:01;8.90;93.70
43987;DHT22;29650;47.378;8.300;2022-11-20T12:11:32;9.00;94.50
43987;DHT22;29650;47.378;8.300;2022-11-20T12:14:04;9.00;95.10
43987;DHT22;29650;47.378;8.300;2022-11-20T12:16:37;8.90;93.90
43987;DHT22;29650;47.378;8.300;2022-11-20T12:19:08;9.00;95.10
43987;DHT22;29650;47.378;8.300;2022-11-20T12:21:43;8.80;94.00
43987;DHT22;29650;47.378;8.300;2022-11-20T12:24:32;8.70;93.80
43987;DHT22;29650;47.378;8.300;2022-11-20T12:27:27;8.70;94.30
43987;DHT22;29650;47.378;8.300;2022-11-20T12:30:02;8.80;94.50
43987;DHT22;29650;47.378;8.300;2022-11-20T12:32:50;8.90;94.50
43987;DHT22;29650;47.378;8.300;2022-11-20T12:35:32;8.80;94.30
43987;DHT22;29650;47.378;8.300;2022-11-20T12:38:18;8.90;94.30
43987;DHT22;29650;47.378;8.300;2022-11-20T12:40:55;8.90;94.80
43987;DHT22;29650;47.378;8.300;2022-11-20T12:43:26;8.90;94.60
43987;DHT22;29650;47.378;8.300;2022-11-20T12:46:25;8.80;93.90
43987;DHT22;29650;47.378;8.300;2022-11-20T12:49:15;8.90;95.10
43987;DHT22;29650;47.378;8.300;2022-11-20T12:52:12;9.00;94.80
43987;DHT22;29650;47.378;8.300;2022-11-20T12:55:02;8.90;93.90
43987;DHT22;29650;47.378;8.300;2022-11-20T12:57:40;9.00;94.20
43987;DHT22;29650;47.378;8.300;2022-11-20T13:00:12;9.00;93.40
43987;DHT22;29650;47.378;8.300;2022-11-20T13:05:49;8.90;92.90
43987;DHT22;29650;47.378;8.300;2022-11-20T13:08:20;8.80;92.10
43987;DHT22;29650;47.378;8.300;2022-11-20T13:10:55;8.80;92.10
43987;DHT22;29650;47.378;8.300;2022-11-20T13:13:32;8.90;92.00
43987;DHT22;29650;47.378;8.300;2022-11-20T13:16:04;8.90;92.20
43987;DHT22;29650;47.378;8.300;2022-11-20T13:18:38;9.20;91.30
43987;DHT22;29650;47.378;8.300;2022-11-20T13:21:14;9.30;91.20
43987;DHT22;29650;47.378;8.300;2022-11-20T13:23:41;9.30;91.50
43987;DHT22;29650;47.378;8.300;2022-11-20T13:26:17;9.20;90.80
43987;DHT22;29650;47.378;8.300;2022-11-20T13:28:47;9.30;91.60
43987;DHT22;29650;47.378;8.300;2022-11-20T13:31:30;9.50;90.50
43987;DHT22;29650;47.378;8.300;2022-11-20T13:33:58;9.40;90.50
43987;DHT22;29650;47.378;8.300;2022-11-20T13:36:28;9.30;89.50
43987;DHT22;29650;47.378;8.300;2022-11-20T13:38:55;9.30;89.70
43987;DHT22;29650;47.378;8.300;2022-11-20T13:41:27;9.30;86.60
43987;DHT22;29650;47.378;8.300;2022-11-20T13:44:04;9.20;86.70
43987;DHT22;29650;47.378;8.300;2022-11-20T13:46:39;9.40;87.70
43987;DHT22;29650;47.378;8.300;2022-11-20T13:49:10;9.50;87.40
43987;DHT22;29650;47.378;8.300;2022-11-20T13:51:44;9.50;85.20
43987;DHT22;29650;47.378;8.300;2022-11-20T13:54:28;9.40;84.20
43987;DHT22;29650;47.378;8.300;2022-11-20T13:57:11;9.40;86.00
43987;DHT22;29650;47.378;8.300;2022-11-20T13:59:49;9.50;84.60
43987;DHT22;29650;47.378;8.300;2022-11-20T14:02:21;9.60;84.60
43987;DHT22;29650;47.378;8.300;2022-11-20T14:04:51;9.40;84.90
43987;DHT22;29650;47.378;8.300;2022-11-20T14:07:20;9.40;84.10
43987;DHT22;29650;47.378;8.300;2022-11-20T14:09:52;9.50;85.20
43987;DHT22;29650;47.378;8.300;2022-11-20T14:12:21;9.50;84.10
43987;DHT22;29650;47.378;8.300;2022-11-20T14:14:51;9.50;85.90
43987;DHT22;29650;47.378;8.300;2022-11-20T14:17:19;9.50;86.30
43987;DHT22;29650;47.378;8.300;2022-11-20T14:19:47;9.50;86.00
43987;DHT22;29650;47.378;8.300;2022-11-20T14:22:20;9.60;86.30
43987;DHT22;29650;47.378;8.300;2022-11-20T14:24:47;9.50;85.10
43987;DHT22;29650;47.378;8.300;2022-11-20T14:27:16;9.40;83.10
43987;DHT22;29650;47.378;8.300;2022-11-20T14:29:44;9.50;84.20
43987;DHT22;29650;47.378;8.300;2022-11-20T14:32:15;9.40;83.40
43987;DHT22;29650;47.378;8.300;2022-11-20T14:34:44;9.50;83.40
43987;DHT22;29650;47.378;8.300;2022-11-20T14:37:16;9.50;85.60
43987;DHT22;29650;47.378;8.300;2022-11-20T14:39:49;9.60;86.60
43987;DHT22;29650;47.378;8.300;2022-11-20T14:42:18;9.60;84.70
43987;DHT22;29650;47.378;8.300;2022-11-20T14:44:47;9.70;84.50
43987;DHT22;29650;47.378;8.300;2022-11-20T14:47:20;9.80;83.80
43987;DHT22;29650;47.378;8.300;2022-11-20T14:49:48;9.90;83.60
43987;DHT22;29650;47.378;8.300;2022-11-20T14:52:17;10.10;83.30
43987;DHT22;29650;47.378;8.300;2022-11-20T14:54:45;9.90;83.80
43987;DHT22;29650;47.378;8.300;2022-11-20T14:57:24;9.60;84.70
43987;DHT22;29650;47.378;8.300;2022-11-20T15:00:08;9.40;85.20
43987;DHT22;29650;47.378;8.300;2022-11-20T15:02:47;9.30;85.40
43987;DHT22;29650;47.378;8.300;2022-11-20T15:05:14;9.30;85.10
43987;DHT22;29650;47.378;8.300;2022-11-20T15:07:44;8.90;85.70
43987;DHT22;29650;47.378;8.300;2022-11-20T15:10:19;9.00;84.50
43987;DHT22;29650;47.378;8.300;2022-11-20T15:12:49;8.80;86.00
43987;DHT22;29650;47.378;8.300;2022-11-20T15:15:20;8.90;87.60
43987;DHT22;29650;47.378;8.300;2022-11-20T15:17:49;8.70;90.70
43987;DHT22;29650;47.378;8.300;2022-11-20T15:20:16;8.70;91.40
43987;DHT22;29650;47.378;8.300;2022-11-20T15:22:44;8.70;91.70
43987;DHT22;29650;47.378;8.300;2022-11-20T15:25:13;8.50;93.00
43987;DHT22;29650;47.378;8.300;2022-11-20T15:27:40;8.50;93.60
43987;DHT22;29650;47.378;8.300;2022-11-20T15:30:13;8.50;94.10
43987;DHT22;29650;47.378;8.300;2022-11-20T15:32:41;8.40;94.90
43987;DHT22;29650;47.378;8.300;2022-11-20T15:35:09;8.40;95.40
43987;DHT22;29650;47.378;8.300;2022-11-20T15:37:36;8.20;96.20
43987;DHT22;29650;47.378;8.300;2022-11-20T15:40:05;8.20;96.70
43987;DHT22;29650;47.378;8.300;2022-11-20T15:42:33;8.30;97.00
43987;DHT22;29650;47.378;8.300;2022-11-20T15:45:00;8.30;97.00
43987;DHT22;29650;47.378;8.300;2022-11-20T15:47:29;8.10;97.50
43987;DHT22;29650;47.378;8.300;2022-11-20T15:49:56;8.00;98.00
43987;DHT22;29650;47.378;8.300;2022-11-20T15:52:25;7.80;99.60
43987;DHT22;29650;47.378;8.300;2022-11-20T15:54:52;7.70;99.90
43987;DHT22;29650;47.378;8.300;2022-11-20T15:57:19;7.60;99.90
43987;DHT22;29650;47.378;8.300;2022-11-20T15:59:46;7.50;99.90
43987;DHT22;29650;47.378;8.300;2022-11-20T16:02:14;7.50;99.90
43987;DHT22;29650;47.378;8.300;2022-11-20T16:04:41;7.50;99.90
43987;DHT22;29650;47.378;8.300;2022-11-20T16:07:08;7.50;99.90